Terminal Aerodrome Forecast
Issued by NWS

Home | Current Version | Previous Version | Text Only | Print | Product List | Glossary On
Versions: 1 2 3 4 5 6 7 8 9 10 11 12 13 14 15 16 17 18 19 20 21 22 23
000
FTUS43 KGRR 221700
TAFBTL
TAF
KBTL 221740Z 2218/2318 VRB04KT P6SM BKN012
     FM221900 VRB04KT P6SM BKN025
     FM222100 VRB04KT P6SM VCSH BKN035
     FM230000 VRB03KT P6SM FEW035
     FM230600 07004KT 3/4SM BR OVC005
     FM231600 09007KT P6SM BKN015=

USA.gov is the U.S. government's official web portal to all federal, state and local government web resources and services.